Time;durP1;ratioP1;P1;durP2;ratioP2;P2;SDS_P1;SDS_P2;PMS_P1;PMS_P2;Temp;Humidity;BMP_temperature;BMP_pressure;BME280_temperature;BME280_humidity;BME280_pressure;Samples;Min_cycle;Max_cycle;Signal;HPM_P1;HPM_P2
2021/12/24 00:01:19;;;;;;;86.43;37.65;;;9.50;99.90;;;;;;5054246;28;20135;-63
2021/12/24 00:03:46;;;;;;;109.35;39.03;;;9.50;99.90;;;;;;5059487;28;20037;-63
2021/12/24 00:06:12;;;;;;;97.93;38.45;;;9.50;99.90;;;;;;5035180;28;20052;-63
2021/12/24 00:08:38;;;;;;;118.38;39.83;;;9.50;99.90;;;;;;5040424;28;20028;-63
2021/12/24 00:11:05;;;;;;;99.00;39.42;;;9.50;99.90;;;;;;5047780;28;20049;-63
2021/12/24 00:13:36;;;;;;;134.63;38.97;;;9.50;99.90;;;;;;5046755;28;20065;-63
2021/12/24 00:16:11;;;;;;;108.25;38.85;;;9.50;99.90;;;;;;5048480;28;20098;-63
2021/12/24 00:37:07;;;;;;;216.15;44.10;;;9.40;99.90;;;;;;5049718;28;20042;-63
2021/12/24 00:39:38;;;;;;;224.88;44.97;;;9.40;99.90;;;;;;5051931;28;20054;-63
2021/12/24 00:42:04;;;;;;;;;;;9.40;99.90;;;;;;5056144;28;20059;-63
2021/12/24 00:44:30;;;;;;;169.73;41.47;;;9.40;99.90;;;;;;5049886;28;20363;-63
2021/12/24 00:46:55;;;;;;;173.90;44.72;;;9.40;99.90;;;;;;5051990;28;20063;-64
2021/12/24 00:49:21;;;;;;;161.82;44.92;;;9.40;99.90;;;;;;5053622;28;20144;-63
2021/12/24 00:52:07;;;;;;;193.10;45.85;;;9.40;99.90;;;;;;5059543;28;20032;-63
2021/12/24 00:57:21;;;;;;;213.25;42.33;;;9.50;99.90;;;;;;5049764;28;20035;-63
2021/12/24 00:59:47;;;;;;;201.43;43.65;;;9.40;99.90;;;;;;5049944;28;20056;-63
2021/12/24 01:02:12;;;;;;;277.60;42.42;;;9.40;99.90;;;;;;5050762;28;20072;-63
2021/12/24 01:04:38;;;;;;;207.23;46.78;;;9.40;99.90;;;;;;5055893;28;20041;-63
2021/12/24 01:07:04;;;;;;;219.85;42.17;;;9.40;99.90;;;;;;5056917;28;20020;-63
2021/12/24 01:09:30;;;;;;;221.60;44.35;;;9.40;99.90;;;;;;5044429;28;20044;-63
2021/12/24 01:11:55;;;;;;;218.13;44.45;;;9.50;99.90;;;;;;5044637;28;20029;-64
2021/12/24 01:14:22;;;;;;;295.13;46.60;;;9.50;99.90;;;;;;5057829;28;20483;-64
2021/12/24 01:17:04;;;;;;;212.85;45.00;;;9.50;99.90;;;;;;5057032;28;20018;-63
2021/12/24 01:19:30;;;;;;;291.45;46.35;;;9.40;99.90;;;;;;5048862;28;20036;-63
2021/12/24 01:22:53;;;;;;;330.63;48.85;;;9.50;99.90;;;;;;5065396;28;20039;-63
2021/12/24 01:24:53;;;;;;;265.75;47.80;;;9.50;99.90;;;;;;5045351;28;20040;-63
2021/12/24 01:27:52;;;;;;;277.60;47.97;;;9.50;99.90;;;;;;5058071;28;20036;-64
2021/12/24 01:38:23;;;;;;;251.70;47.40;;;9.50;99.90;;;;;;5036942;28;20086;-63
2021/12/24 01:43:18;;;;;;;173.55;44.85;;;9.40;99.90;;;;;;5052174;28;20037;-63
2021/12/24 01:45:50;;;;;;;239.18;48.15;;;9.50;99.90;;;;;;5051900;28;20041;-64
2021/12/24 01:48:15;;;;;;;234.13;48.55;;;9.40;99.90;;;;;;5042246;28;20075;-63
2021/12/24 01:50:42;;;;;;;456.77;54.38;;;9.40;99.90;;;;;;5053983;28;20024;-63
2021/12/24 01:53:09;;;;;;;203.13;47.20;;;9.40;99.90;;;;;;5057604;28;20099;-63
2021/12/24 01:55:36;;;;;;;294.65;51.15;;;9.40;99.90;;;;;;5053809;28;20035;-63
2021/12/24 01:58:03;;;;;;;468.48;57.35;;;9.40;99.90;;;;;;5036735;28;20072;-63
2021/12/24 02:00:32;;;;;;;288.92;53.05;;;9.40;99.90;;;;;;5054878;28;20019;-64
2021/12/24 02:02:58;;;;;;;308.63;51.05;;;9.50;99.90;;;;;;5042658;28;20478;-63
2021/12/24 02:05:24;;;;;;;324.35;50.05;;;9.40;99.90;;;;;;5049773;28;20052;-63
2021/12/24 02:07:51;;;;;;;235.73;46.90;;;9.50;99.90;;;;;;5054198;28;20082;-63
2021/12/24 02:10:18;;;;;;;305.92;47.85;;;9.40;99.90;;;;;;5053537;28;20041;-63
2021/12/24 02:12:45;;;;;;;283.95;47.72;;;9.40;99.90;;;;;;5050477;28;20431;-63
2021/12/24 02:15:23;;;;;;;330.42;49.08;;;9.40;99.90;;;;;;5056932;28;20035;-63
2021/12/24 02:28:41;;;;;;;634.55;59.92;;;9.40;99.90;;;;;;5038782;28;20101;-64
2021/12/24 02:31:18;;;;;;;359.50;52.28;;;9.40;99.90;;;;;;5050188;28;20032;-64
2021/12/24 02:33:45;;;;;;;308.27;47.38;;;9.40;99.90;;;;;;5043335;28;20033;-63
2021/12/24 02:36:11;;;;;;;519.33;56.70;;;9.40;99.90;;;;;;5048207;28;20115;-63
2021/12/24 02:38:38;;;;;;;402.40;49.50;;;9.50;99.90;;;;;;5046296;28;20040;-64
2021/12/24 02:41:05;;;;;;;439.60;53.10;;;9.50;99.90;;;;;;5059788;28;20053;-63
2021/12/24 02:43:31;;;;;;;272.13;46.97;;;9.50;99.90;;;;;;5050065;28;20029;-63
2021/12/24 02:46:06;;;;;;;241.65;45.17;;;9.50;99.90;;;;;;5049278;28;20029;-63
2021/12/24 02:48:57;;;;;;;198.18;36.50;;;9.50;99.90;;;;;;5045989;28;20017;-63
2021/12/24 02:54:07;;;;;;;203.05;36.10;;;9.50;99.90;;;;;;5047565;28;20566;-63
2021/12/24 02:56:37;;;;;;;244.40;38.83;;;9.60;99.90;;;;;;5046634;28;20029;-64
2021/12/24 02:59:06;;;;;;;187.00;31.52;;;9.50;99.90;;;;;;5045215;28;20455;-63
2021/12/24 03:01:38;;;;;;;319.13;41.53;;;9.60;99.90;;;;;;5050225;28;20033;-64
2021/12/24 03:04:05;;;;;;;299.38;39.33;;;9.60;99.90;;;;;;5049299;28;20124;-63
2021/12/24 03:06:34;;;;;;;332.70;42.72;;;9.60;99.90;;;;;;5040084;28;20028;-63
2021/12/24 03:09:01;;;;;;;306.13;41.05;;;9.60;99.90;;;;;;5050143;28;20562;-64
2021/12/24 03:11:26;;;;;;;275.30;38.00;;;9.70;99.90;;;;;;5055329;28;20487;-64
2021/12/24 03:13:53;;;;;;;378.95;42.47;;;9.70;99.90;;;;;;5051010;28;20025;-64
2021/12/24 03:16:20;;;;;;;238.63;33.90;;;9.70;99.90;;;;;;5052519;28;20037;-64
2021/12/24 03:18:47;;;;;;;199.63;30.65;;;9.70;99.90;;;;;;5049926;28;20020;-64
2021/12/24 03:21:29;;;;;;;328.85;43.08;;;9.70;99.90;;;;;;5047089;28;20025;-64
2021/12/24 03:26:27;;;;;;;292.38;37.88;;;9.80;99.90;;;;;;5049727;28;20025;-64
2021/12/24 03:28:53;;;;;;;259.23;36.67;;;9.80;99.90;;;;;;5046372;28;20510;-64
2021/12/24 03:31:19;;;;;;;368.35;41.45;;;9.80;99.90;;;;;;5062143;28;20029;-63
2021/12/24 03:33:45;;;;;;;338.77;40.78;;;9.80;99.90;;;;;;5048874;28;20032;-64
2021/12/24 03:36:10;;;;;;;199.13;30.63;;;9.80;99.90;;;;;;5048043;28;20029;-64
2021/12/24 03:38:36;;;;;;;334.92;39.00;;;9.80;99.90;;;;;;5050759;28;20029;-64
2021/12/24 03:41:04;;;;;;;262.80;39.88;;;9.80;99.90;;;;;;5051872;28;20210;-64
2021/12/24 03:43:29;;;;;;;360.48;40.47;;;9.80;99.90;;;;;;5049790;28;20024;-64
2021/12/24 03:46:00;;;;;;;286.10;41.58;;;9.80;99.90;;;;;;5049404;28;20041;-64
2021/12/24 03:48:43;;;;;;;278.90;36.38;;;9.80;99.90;;;;;;5050192;28;20207;-64
2021/12/24 03:56:29;;;;;;;368.55;40.47;;;9.80;99.90;;;;;;5049963;28;20543;-63
2021/12/24 03:58:55;;;;;;;359.23;39.42;;;9.80;99.90;;;;;;5046282;28;20052;-64
2021/12/24 04:01:21;;;;;;;394.42;41.88;;;9.80;99.90;;;;;;5053006;28;20068;-64
2021/12/24 04:03:47;;;;;;;358.15;42.40;;;9.80;99.90;;;;;;5052981;28;20400;-64
2021/12/24 04:06:13;;;;;;;296.00;40.65;;;9.80;99.90;;;;;;5062311;28;20097;-64
2021/12/24 04:08:39;;;;;;;443.83;44.50;;;9.80;99.90;;;;;;5047967;28;20025;-64
2021/12/24 04:11:05;;;;;;;363.00;42.38;;;9.80;99.90;;;;;;5050519;28;20033;-64
2021/12/24 04:13:31;;;;;;;300.23;39.75;;;9.80;99.90;;;;;;5053847;28;20104;-64
2021/12/24 04:16:05;;;;;;;359.98;39.33;;;9.70;99.90;;;;;;5048445;28;20028;-64
2021/12/24 04:26:27;;;;;;;337.88;39.97;;;9.70;99.90;;;;;;5037726;28;20040;-64
2021/12/24 04:28:53;;;;;;;402.80;43.67;;;9.70;99.90;;;;;;5044216;28;20021;-64
2021/12/24 04:31:26;;;;;;;558.88;46.63;;;9.70;99.90;;;;;;5037934;28;20025;-63
2021/12/24 04:33:51;;;;;;;494.15;43.88;;;9.70;99.90;;;;;;5051906;28;20036;-64
2021/12/24 04:52:43;;;;;;;315.00;35.65;;;9.80;99.90;;;;;;5050238;28;20106;-64
2021/12/24 05:03:14;;;;;;;337.90;33.42;;;9.80;99.90;;;;;;5047353;28;20040;-64
2021/12/24 05:05:51;;;;;;;350.70;34.47;;;9.80;99.90;;;;;;5057052;28;20483;-64
2021/12/24 05:08:23;;;;;;;337.67;33.38;;;9.80;99.90;;;;;;5056396;28;20025;-64
2021/12/24 05:10:51;;;;;;;307.50;33.70;;;9.80;99.90;;;;;;5059173;28;20079;-64
2021/12/24 05:13:18;;;;;;;285.48;34.83;;;9.80;99.90;;;;;;5048768;28;20120;-64
2021/12/24 05:15:48;;;;;;;293.75;32.55;;;9.80;99.90;;;;;;5051200;28;20029;-64
2021/12/24 05:18:31;;;;;;;221.27;25.25;;;9.80;99.90;;;;;;5041146;28;20041;-64
2021/12/24 05:23:42;;;;;;;203.60;26.52;;;9.80;99.90;;;;;;5044132;28;20041;-64
2021/12/24 05:26:09;;;;;;;208.85;27.27;;;9.90;99.90;;;;;;5052028;28;20037;-64
2021/12/24 05:28:38;;;;;;;188.20;25.15;;;9.90;99.90;;;;;;5051180;28;20124;-64
2021/12/24 05:31:04;;;;;;;229.32;25.48;;;9.90;99.90;;;;;;5045263;28;20033;-64
2021/12/24 05:33:29;;;;;;;109.88;21.48;;;9.90;99.90;;;;;;5055003;28;20044;-64
2021/12/24 05:35:55;;;;;;;106.25;20.17;;;9.90;99.90;;;;;;5049175;28;20062;-64
2021/12/24 05:38:21;;;;;;;128.98;22.27;;;9.90;99.90;;;;;;5045823;28;20021;-64
2021/12/24 05:40:47;;;;;;;127.13;19.33;;;9.90;99.90;;;;;;5052577;28;20030;-64
2021/12/24 05:43:13;;;;;;;154.40;21.67;;;10.00;99.90;;;;;;5049673;28;20024;-64
2021/12/24 05:45:40;;;;;;;217.60;23.67;;;9.90;99.90;;;;;;5053967;28;20492;-64
2021/12/24 05:48:06;;;;;;;177.82;24.88;;;10.00;99.90;;;;;;5049064;28;20025;-64
2021/12/24 05:50:32;;;;;;;289.05;27.10;;;9.90;99.90;;;;;;5051080;28;20032;-64
2021/12/24 05:52:58;;;;;;;200.73;25.77;;;9.90;99.90;;;;;;5049433;28;20128;-64
2021/12/24 05:55:24;;;;;;;534.97;33.03;;;10.00;99.90;;;;;;5049532;28;20033;-64
2021/12/24 05:57:50;;;;;;;248.55;27.30;;;10.00;99.90;;;;;;5049565;28;20424;-64
2021/12/24 06:00:16;;;;;;;198.75;26.38;;;9.90;99.90;;;;;;5039875;28;20053;-64
2021/12/24 06:02:42;;;;;;;174.18;26.13;;;10.00;99.90;;;;;;5049660;28;20021;-64
2021/12/24 06:05:09;;;;;;;202.73;27.88;;;10.00;99.90;;;;;;5048079;28;20041;-64
2021/12/24 06:07:34;;;;;;;326.45;32.17;;;10.00;99.90;;;;;;5043502;28;20061;-64
2021/12/24 06:10:00;;;;;;;222.48;27.92;;;10.00;99.90;;;;;;5053839;28;20102;-64
2021/12/24 06:12:26;;;;;;;178.20;25.73;;;10.00;99.90;;;;;;5051721;28;20032;-64
2021/12/24 06:14:55;;;;;;;149.35;21.77;;;9.90;99.90;;;;;;5052242;28;20024;-64
2021/12/24 06:17:23;;;;;;;187.68;23.58;;;9.90;99.90;;;;;;5054271;28;20032;-64
2021/12/24 06:19:49;;;;;;;156.63;23.90;;;9.90;99.90;;;;;;5051421;28;20037;-64
2021/12/24 06:22:15;;;;;;;198.77;24.02;;;9.90;99.90;;;;;;5045118;28;20029;-64
2021/12/24 06:24:41;;;;;;;77.68;14.40;;;9.90;99.90;;;;;;5049068;28;20052;-64
2021/12/24 06:27:07;;;;;;;165.10;22.95;;;9.90;99.90;;;;;;5048541;28;20025;-64
2021/12/24 06:29:33;;;;;;;117.85;18.10;;;9.90;99.90;;;;;;5051287;28;20029;-64
2021/12/24 06:31:58;;;;;;;160.98;21.45;;;9.90;99.90;;;;;;5047581;28;20028;-64
2021/12/24 06:34:30;;;;;;;130.18;20.75;;;9.80;99.90;;;;;;5059025;28;20155;-64
2021/12/24 06:36:56;;;;;;;156.98;20.48;;;9.90;99.90;;;;;;5055228;28;20116;-64
2021/12/24 06:39:22;;;;;;;151.57;23.17;;;9.90;99.90;;;;;;5058430;28;20037;-64
2021/12/24 06:41:48;;;;;;;138.02;23.23;;;9.90;99.90;;;;;;5049432;28;20610;-64
2021/12/24 06:44:14;;;;;;;122.80;22.17;;;9.80;99.90;;;;;;5047266;28;20423;-64
2021/12/24 06:46:42;;;;;;;147.55;24.17;;;9.90;99.90;;;;;;5046434;28;20024;-64
2021/12/24 06:49:10;;;;;;;151.57;26.33;;;9.80;99.90;;;;;;5053569;28;20031;-64
2021/12/24 06:51:36;;;;;;;152.25;26.83;;;9.90;99.90;;;;;;5052456;28;20036;-64
2021/12/24 06:54:03;;;;;;;141.35;26.50;;;9.90;99.90;;;;;;5047421;28;20033;-64
2021/12/24 06:56:30;;;;;;;138.25;26.65;;;9.90;99.90;;;;;;5048519;28;20040;-64
2021/12/24 06:58:56;;;;;;;147.73;27.35;;;9.90;99.90;;;;;;5046857;28;20039;-64
2021/12/24 07:01:22;;;;;;;228.57;29.95;;;9.90;99.90;;;;;;5040136;28;20026;-64
2021/12/24 07:03:48;;;;;;;229.27;30.33;;;9.90;99.90;;;;;;5058547;28;20021;-64
2021/12/24 07:06:14;;;;;;;292.30;31.50;;;9.90;99.90;;;;;;5051386;28;20123;-64
2021/12/24 07:08:40;;;;;;;299.98;31.15;;;9.90;99.90;;;;;;5048208;28;20029;-64
2021/12/24 07:11:05;;;;;;;149.23;28.33;;;9.90;99.90;;;;;;5050016;28;20107;-65
2021/12/24 07:13:31;;;;;;;164.98;28.55;;;9.90;99.90;;;;;;5048679;28;20116;-64
2021/12/24 07:15:57;;;;;;;154.38;27.05;;;10.00;99.90;;;;;;5035402;28;20033;-64
2021/12/24 07:18:23;;;;;;;101.20;19.25;;;9.90;99.90;;;;;;5041617;28;20025;-64
2021/12/24 07:20:49;;;;;;;180.00;27.40;;;9.90;99.90;;;;;;5049706;28;20031;-64
2021/12/24 07:23:14;;;;;;;139.27;23.23;;;10.00;99.90;;;;;;5054597;28;20029;-64
2021/12/24 07:25:40;;;;;;;170.68;33.75;;;9.90;99.90;;;;;;5048878;28;20032;-64
2021/12/24 07:28:06;;;;;;;189.40;32.28;;;10.00;99.90;;;;;;5039888;28;20399;-64
2021/12/24 07:30:33;;;;;;;187.93;30.88;;;10.00;99.90;;;;;;5059474;28;20029;-64
2021/12/24 07:32:59;;;;;;;164.63;30.35;;;10.00;99.90;;;;;;5048546;28;20064;-64
2021/12/24 07:35:25;;;;;;;216.43;32.20;;;10.00;99.90;;;;;;5049430;28;20448;-64
2021/12/24 07:37:51;;;;;;;168.27;27.98;;;10.00;99.90;;;;;;5046986;28;20027;-64
2021/12/24 07:40:18;;;;;;;339.13;46.95;;;10.00;99.90;;;;;;5050080;28;20078;-64
2021/12/24 07:42:45;;;;;;;217.38;36.20;;;10.00;99.90;;;;;;5054101;28;20033;-64
2021/12/24 07:45:13;;;;;;;177.95;29.70;;;10.00;99.90;;;;;;5047123;28;20289;-64
2021/12/24 07:47:42;;;;;;;191.32;31.90;;;10.00;99.90;;;;;;5044089;28;20025;-64
2021/12/24 07:50:18;;;;;;;209.10;31.23;;;10.00;99.90;;;;;;5050903;28;20484;-64
2021/12/24 07:52:45;;;;;;;182.25;31.48;;;10.00;99.90;;;;;;5054268;28;20404;-64
2021/12/24 07:55:11;;;;;;;158.55;31.38;;;10.00;99.90;;;;;;5041251;28;20395;-65
2021/12/24 07:57:39;;;;;;;157.60;29.27;;;10.00;99.90;;;;;;5054426;28;20445;-64
2021/12/24 08:00:07;;;;;;;125.25;25.00;;;10.00;99.90;;;;;;5047851;28;20029;-64
2021/12/24 08:02:33;;;;;;;114.93;27.98;;;10.00;99.90;;;;;;5048932;28;20067;-64
2021/12/24 08:05:00;;;;;;;92.55;24.00;;;10.00;99.90;;;;;;5053397;28;20053;-65
2021/12/24 08:07:27;;;;;;;91.78;22.73;;;10.00;99.90;;;;;;5046307;28;20484;-65
2021/12/24 08:09:53;;;;;;;99.43;26.38;;;10.00;99.90;;;;;;5055295;28;20029;-65
2021/12/24 08:12:20;;;;;;;96.13;21.33;;;10.00;99.90;;;;;;5049591;28;20393;-65
2021/12/24 08:14:47;;;;;;;132.25;29.00;;;10.00;99.90;;;;;;5044436;28;20420;-65
2021/12/24 08:17:13;;;;;;;74.20;21.58;;;10.00;99.90;;;;;;5055768;28;20408;-65
2021/12/24 08:19:39;;;;;;;81.25;19.50;;;10.00;99.90;;;;;;5049691;28;20021;-65
2021/12/24 08:22:06;;;;;;;103.93;22.40;;;10.00;99.90;;;;;;5050079;28;20514;-65
2021/12/24 08:24:32;;;;;;;141.32;28.23;;;10.00;99.90;;;;;;5059326;28;20040;-64
2021/12/24 08:26:57;;;;;;;209.38;31.52;;;10.00;99.90;;;;;;5051332;28;20116;-64
2021/12/24 08:30:50;;;;;;;103.53;21.30;;;10.00;99.90;;;;;;5058645;28;20466;-67
2021/12/24 08:33:16;;;;;;;165.02;29.45;;;10.00;99.90;;;;;;5049122;28;20448;-67
2021/12/24 08:35:42;;;;;;;165.85;28.08;;;10.00;99.90;;;;;;5055080;28;20029;-67
2021/12/24 08:38:09;;;;;;;119.88;25.23;;;10.00;99.90;;;;;;5048798;28;20500;-67
2021/12/24 08:40:35;;;;;;;71.32;20.92;;;10.00;99.90;;;;;;5051197;28;20025;-67
2021/12/24 08:43:01;;;;;;;99.57;21.75;;;10.00;99.90;;;;;;5047613;28;20074;-67
2021/12/24 08:45:27;;;;;;;85.53;21.58;;;10.00;99.90;;;;;;5056510;28;20048;-67
2021/12/24 08:47:53;;;;;;;73.50;17.80;;;10.00;99.90;;;;;;5052296;28;20065;-67
2021/12/24 08:50:19;;;;;;;78.10;18.77;;;10.00;99.90;;;;;;5049141;28;20106;-66
2021/12/24 08:52:46;;;;;;;91.30;21.45;;;10.00;99.90;;;;;;5043248;28;20033;-66
2021/12/24 08:55:16;;;;;;;74.30;19.75;;;10.00;99.90;;;;;;5048449;28;20036;-66
2021/12/24 08:57:43;;;;;;;35.10;13.77;;;10.10;99.90;;;;;;5048641;28;20104;-67
2021/12/24 09:00:12;;;;;;;51.65;17.38;;;10.10;99.90;;;;;;5043040;28;20108;-66
2021/12/24 09:02:39;;;;;;;67.60;20.92;;;10.10;99.90;;;;;;5039142;28;20033;-67
2021/12/24 09:05:07;;;;;;;68.85;20.25;;;10.10;99.90;;;;;;5036289;28;20032;-66
2021/12/24 09:07:33;;;;;;;63.95;18.58;;;10.10;99.90;;;;;;5041427;28;20374;-66
2021/12/24 09:09:59;;;;;;;55.60;16.05;;;10.10;99.90;;;;;;5042517;28;20033;-66
2021/12/24 09:12:25;;;;;;;80.15;22.85;;;10.10;99.90;;;;;;5043957;28;20488;-67
2021/12/24 09:14:53;;;;;;;79.43;23.73;;;10.10;99.90;;;;;;5045551;28;20041;-67
2021/12/24 09:17:18;;;;;;;100.38;24.60;;;10.10;99.90;;;;;;5053643;28;20071;-67
2021/12/24 09:19:48;;;;;;;75.85;19.05;;;10.10;99.90;;;;;;5042601;28;20053;-67
2021/12/24 09:22:17;;;;;;;80.13;20.67;;;10.20;99.90;;;;;;5044135;28;20033;-67
2021/12/24 09:24:48;;;;;;;75.60;21.88;;;10.20;99.90;;;;;;5049201;28;20091;-68
2021/12/24 09:27:14;;;;;;;45.90;15.07;;;10.20;99.90;;;;;;5044787;28;20025;-68
2021/12/24 09:29:41;;;;;;;52.28;15.70;;;10.20;99.90;;;;;;5044734;28;20055;-68
2021/12/24 09:32:08;;;;;;;77.68;20.13;;;10.20;99.90;;;;;;5043991;28;20397;-68
2021/12/24 09:34:34;;;;;;;80.60;23.27;;;10.30;99.90;;;;;;5042625;28;20025;-68
2021/12/24 09:37:00;;;;;;;63.75;17.63;;;10.30;99.90;;;;;;5047115;28;20438;-67
2021/12/24 09:39:25;;;;;;;35.50;13.38;;;10.30;99.90;;;;;;5042394;28;20088;-68
2021/12/24 09:41:51;;;;;;;45.40;13.43;;;10.30;99.90;;;;;;5033451;28;20024;-68
2021/12/24 09:44:17;;;;;;;69.88;19.48;;;10.30;99.90;;;;;;5036499;28;20382;-68
2021/12/24 09:46:43;;;;;;;64.22;18.08;;;10.30;99.90;;;;;;5030886;28;20053;-68
2021/12/24 09:49:13;;;;;;;77.70;20.17;;;10.30;99.90;;;;;;5031315;28;20084;-67
2021/12/24 09:51:43;;;;;;;62.87;18.47;;;10.40;99.90;;;;;;5030664;28;20477;-68
2021/12/24 09:54:18;;;;;;;59.47;17.98;;;10.40;99.90;;;;;;5031003;28;20496;-68
2021/12/24 09:56:45;;;;;;;72.38;21.17;;;10.30;99.90;;;;;;5030974;28;20033;-68
2021/12/24 09:59:11;;;;;;;87.45;22.60;;;10.40;99.90;;;;;;5027008;28;20014;-68
2021/12/24 10:01:42;;;;;;;59.80;17.38;;;10.40;99.90;;;;;;5020484;28;20034;-68
2021/12/24 10:04:16;;;;;;;59.08;16.30;;;10.40;99.90;;;;;;5028059;28;20028;-68
2021/12/24 10:07:00;;;;;;;78.47;21.33;;;10.40;99.90;;;;;;5022259;28;20073;-68
2021/12/24 10:09:47;;;;;;;80.13;22.40;;;10.40;99.90;;;;;;5029757;28;20036;-68
2021/12/24 10:12:17;;;;;;;75.30;20.20;;;10.40;99.90;;;;;;5028423;28;20079;-68
2021/12/24 10:14:54;;;;;;;;;;;10.50;99.90;;;;;;5030362;28;20045;-68
2021/12/24 10:17:24;;;;;;;57.63;18.30;;;10.60;99.90;;;;;;5027480;28;19917;-68
2021/12/24 10:19:56;;;;;;;67.03;20.00;;;10.60;99.90;;;;;;5028668;28;20025;-68
2021/12/24 10:22:23;;;;;;;68.25;19.70;;;10.60;99.90;;;;;;5029160;28;20025;-68
2021/12/24 10:25:00;;;;;;;80.45;21.73;;;10.60;99.90;;;;;;5031792;28;20484;-68
2021/12/24 10:27:31;;;;;;;75.18;22.05;;;10.70;99.90;;;;;;5028971;28;20053;-68
2021/12/24 10:29:57;;;;;;;76.45;21.45;;;10.70;99.90;;;;;;5030137;28;20042;-68
2021/12/24 10:32:23;;;;;;;71.55;22.73;;;10.70;99.90;;;;;;5031001;28;20029;-68
2021/12/24 10:34:49;;;;;;;74.55;22.05;;;10.80;99.90;;;;;;5030547;28;20385;-68
2021/12/24 10:37:24;;;;;;;67.28;19.70;;;10.80;99.90;;;;;;5030540;28;20026;-68
2021/12/24 10:39:55;;;;;;;54.13;18.60;;;10.90;99.90;;;;;;5033694;28;20112;-68
2021/12/24 10:42:39;;;;;;;47.20;16.85;;;10.90;99.90;;;;;;5028571;28;20555;-67
2021/12/24 10:45:14;;;;;;;76.22;23.55;;;10.90;99.90;;;;;;5026187;28;20508;-68
2021/12/24 10:47:41;;;;;;;60.75;20.77;;;10.90;99.90;;;;;;5032194;28;20036;-68
2021/12/24 10:55:35;;;;;;;44.90;17.83;;;11.10;99.90;;;;;;5029975;28;20080;-67
2021/12/24 10:58:03;;;;;;;51.58;20.60;;;11.20;99.90;;;;;;5028748;28;20508;-67
2021/12/24 11:00:41;;;;;;;47.13;19.85;;;11.30;99.90;;;;;;5038844;28;20480;-67
2021/12/24 11:03:14;;;;;;;50.72;19.95;;;11.20;99.90;;;;;;5028522;28;20037;-67
2021/12/24 11:05:42;;;;;;;54.60;20.70;;;11.20;99.90;;;;;;5022910;28;20017;-67
2021/12/24 11:08:17;;;;;;;48.92;19.70;;;11.10;99.90;;;;;;5028374;28;20052;-68
2021/12/24 11:10:49;;;;;;;54.92;21.58;;;11.10;99.90;;;;;;5039755;28;20048;-67
2021/12/24 11:13:20;;;;;;;46.83;20.00;;;11.10;99.90;;;;;;5031059;28;20586;-68
2021/12/24 11:15:47;;;;;;;;;;;11.00;99.90;;;;;;5031366;28;20033;-68
2021/12/24 11:18:24;;;;;;;38.88;18.13;;;11.00;99.90;;;;;;5028916;28;19971;-67
2021/12/24 11:20:53;;;;;;;44.30;21.23;;;11.00;99.90;;;;;;5028249;28;20034;-67
2021/12/24 11:23:21;;;;;;;37.90;17.70;;;11.10;99.90;;;;;;5024103;28;20033;-67
2021/12/24 11:25:50;;;;;;;34.08;16.58;;;11.30;99.90;;;;;;5029758;28;20025;-68
2021/12/24 11:28:18;;;;;;;37.17;17.63;;;11.60;99.90;;;;;;5031245;28;20567;-68
2021/12/24 11:30:49;;;;;;;33.55;18.35;;;11.70;99.90;;;;;;5031149;28;20041;-68
2021/12/24 11:33:18;;;;;;;32.53;17.45;;;11.80;99.90;;;;;;5030551;28;20018;-68
2021/12/24 11:35:46;;;;;;;39.67;19.98;;;11.80;99.90;;;;;;5030074;28;20064;-68
2021/12/24 11:38:18;;;;;;;40.58;20.02;;;12.00;99.90;;;;;;5037967;28;20018;-68
2021/12/24 11:40:46;;;;;;;36.95;19.38;;;12.10;99.90;;;;;;5027729;28;20096;-68
2021/12/24 11:43:12;;;;;;;35.30;18.48;;;12.00;99.90;;;;;;5034052;28;20073;-68
2021/12/24 11:45:38;;;;;;;27.08;14.48;;;12.00;99.90;;;;;;5029429;28;20029;-69
2021/12/24 11:48:05;;;;;;;34.63;19.42;;;12.00;99.90;;;;;;5027285;28;20029;-69
2021/12/24 11:50:33;;;;;;;30.88;16.63;;;11.90;99.90;;;;;;5030202;28;20033;-69
2021/12/24 11:53:03;;;;;;;25.63;15.05;;;12.10;99.90;;;;;;5023526;28;20035;-69
2021/12/24 11:55:34;;;;;;;27.10;15.57;;;12.30;99.90;;;;;;5029838;28;20551;-69
2021/12/24 11:58:05;;;;;;;24.55;14.60;;;12.40;99.50;;;;;;5037432;28;20040;-69
2021/12/24 12:00:38;;;;;;;23.58;13.80;;;12.40;99.40;;;;;;5030758;28;20059;-69
2021/12/24 12:03:04;;;;;;;25.95;13.07;;;12.30;99.10;;;;;;5034232;28;20025;-69
2021/12/24 12:05:32;;;;;;;29.13;17.10;;;12.30;99.00;;;;;;5030618;28;20108;-69
2021/12/24 12:08:16;;;;;;;25.45;16.40;;;12.30;99.40;;;;;;5030487;28;20028;-69
2021/12/24 12:10:53;;;;;;;22.98;12.52;;;12.20;99.60;;;;;;5026169;28;20041;-69
2021/12/24 12:13:59;;;;;;;20.98;13.57;;;12.10;99.70;;;;;;5035559;28;20034;-69
2021/12/24 12:16:50;;;;;;;31.20;17.00;;;12.10;99.80;;;;;;5000965;28;20022;-68
2021/12/24 12:19:25;;;;;;;;;;;12.00;99.90;;;;;;4999492;28;20026;-69
2021/12/24 12:22:15;;;;;;;18.67;11.65;;;11.90;99.90;;;;;;5006653;28;19916;-68
2021/12/24 12:25:00;;;;;;;24.30;14.00;;;11.80;99.90;;;;;;4987141;28;20771;-68
2021/12/24 12:27:31;;;;;;;26.52;15.40;;;11.90;99.90;;;;;;5007130;28;20057;-69
2021/12/24 12:29:57;;;;;;;28.27;17.35;;;11.90;99.90;;;;;;5005545;28;20061;-69
2021/12/24 12:32:24;;;;;;;30.10;18.35;;;11.90;99.90;;;;;;5006488;28;20049;-69
2021/12/24 12:34:56;;;;;;;28.67;17.23;;;11.90;99.90;;;;;;5006577;28;20029;-68
2021/12/24 12:37:27;;;;;;;27.70;15.65;;;11.90;99.90;;;;;;5008465;28;20382;-68
2021/12/24 12:40:24;;;;;;;30.10;18.05;;;12.00;99.90;;;;;;5000182;28;20116;-68
2021/12/24 12:42:54;;;;;;;33.60;17.75;;;12.00;99.90;;;;;;5012986;28;20048;-69
2021/12/24 12:45:36;;;;;;;25.23;15.50;;;12.20;99.70;;;;;;5005148;28;20113;-69
2021/12/24 12:48:04;;;;;;;27.92;14.60;;;12.30;99.40;;;;;;5001383;28;20564;-70
2021/12/24 12:50:31;;;;;;;25.85;15.85;;;12.30;99.10;;;;;;5012561;28;20045;-69
2021/12/24 12:53:21;;;;;;;24.48;15.70;;;12.20;99.10;;;;;;5027683;28;20022;-69
2021/12/24 12:55:48;;;;;;;29.05;16.60;;;12.10;99.70;;;;;;5026201;28;20484;-68
2021/12/24 12:58:22;;;;;;;27.60;17.90;;;12.00;99.40;;;;;;5026814;28;20022;-69
2021/12/24 13:01:12;;;;;;;29.30;18.77;;;11.90;99.70;;;;;;5031021;28;20091;-69
2021/12/24 13:03:56;;;;;;;36.20;18.77;;;11.80;99.90;;;;;;5012051;28;20038;-69
2021/12/24 13:06:36;;;;;;;32.03;19.48;;;11.70;99.90;;;;;;5013060;28;20033;-69
2021/12/24 13:09:04;;;;;;;32.88;19.42;;;11.70;99.90;;;;;;5011942;28;20045;-69
2021/12/24 13:11:35;;;;;;;29.15;19.27;;;11.70;99.90;;;;;;5012544;28;20026;-69
2021/12/24 13:14:02;;;;;;;29.23;18.83;;;11.60;99.90;;;;;;5012242;28;20061;-69
2021/12/24 13:16:43;;;;;;;29.50;17.98;;;11.60;99.90;;;;;;5010492;28;20519;-69
2021/12/24 13:24:49;;;;;;;34.22;19.75;;;11.60;99.90;;;;;;5029766;28;20037;-69
2021/12/24 13:27:16;;;;;;;29.38;19.88;;;11.60;99.90;;;;;;5027275;28;20068;-69
2021/12/24 13:29:42;;;;;;;29.17;16.75;;;11.60;99.90;;;;;;5026950;28;20049;-69
2021/12/24 13:32:08;;;;;;;32.20;20.55;;;11.50;99.90;;;;;;5027379;28;20033;-69
2021/12/24 13:34:36;;;;;;;31.08;18.63;;;11.50;99.90;;;;;;5027722;28;20033;-69
2021/12/24 13:37:09;;;;;;;33.40;18.33;;;11.50;99.90;;;;;;5028824;28;20070;-69
2021/12/24 13:39:35;;;;;;;33.90;21.30;;;11.60;99.90;;;;;;5030056;28;20057;-69
2021/12/24 13:42:08;;;;;;;36.60;21.88;;;11.50;99.90;;;;;;5027172;28;20540;-69
2021/12/24 13:44:39;;;;;;;36.58;21.95;;;11.50;99.90;;;;;;5026616;28;20255;-69
2021/12/24 13:47:15;;;;;;;35.40;21.05;;;11.40;99.90;;;;;;5026803;28;20097;-69
2021/12/24 13:55:35;;;;;;;33.45;19.27;;;11.20;99.90;;;;;;5011755;28;20040;-69
2021/12/24 13:58:04;;;;;;;34.88;21.23;;;11.20;99.90;;;;;;5029729;28;20049;-69
2021/12/24 14:00:33;;;;;;;40.25;22.05;;;11.10;99.90;;;;;;5027280;28;20026;-69
2021/12/24 14:03:07;;;;;;;38.17;22.75;;;11.10;99.90;;;;;;5026016;28;20044;-69
2021/12/24 14:05:32;;;;;;;35.35;20.52;;;11.00;99.90;;;;;;5027009;28;20408;-69
2021/12/24 14:08:14;;;;;;;35.22;20.15;;;11.00;99.90;;;;;;5026753;28;20029;-69
2021/12/24 14:10:41;;;;;;;39.83;21.60;;;11.00;99.90;;;;;;5018537;28;20069;-69
2021/12/24 14:13:29;;;;;;;38.42;21.90;;;11.00;99.90;;;;;;5029363;28;20025;-69
2021/12/24 14:18:32;;;;;;;37.17;22.52;;;11.00;99.90;;;;;;5027193;28;20025;-69
2021/12/24 14:23:46;;;;;;;44.65;23.00;;;11.00;99.90;;;;;;5026708;28;20030;-69
2021/12/24 14:26:13;;;;;;;40.83;22.52;;;11.00;99.90;;;;;;5026413;28;20508;-69
2021/12/24 14:28:51;;;;;;;44.72;24.10;;;11.00;99.90;;;;;;5026255;28;20065;-69
2021/12/24 14:31:16;;;;;;;36.85;21.17;;;11.10;99.90;;;;;;5026277;28;20063;-69